sensor_id;sensor_type;location;lat;lon;timestamp;temperature;humidity
26107;DHT22;13866;50.748;12.630;2024-02-23T00:01:04;10.60;99.90
26107;DHT22;13866;50.748;12.630;2024-02-23T00:03:30;10.50;99.90
26107;DHT22;13866;50.748;12.630;2024-02-23T00:05:56;10.50;99.90
26107;DHT22;13866;50.748;12.630;2024-02-23T00:08:21;10.50;99.90
26107;DHT22;13866;50.748;12.630;2024-02-23T00:10:47;10.50;99.90
26107;DHT22;13866;50.748;12.630;2024-02-23T00:13:12;10.50;99.90
26107;DHT22;13866;50.748;12.630;2024-02-23T00:15:38;10.40;99.90
26107;DHT22;13866;50.748;12.630;2024-02-23T00:18:04;10.50;99.90
26107;DHT22;13866;50.748;12.630;2024-02-23T00:20:29;10.40;99.90
26107;DHT22;13866;50.748;12.630;2024-02-23T00:22:55;10.40;99.90
26107;DHT22;13866;50.748;12.630;2024-02-23T00:25:21;10.40;99.90
26107;DHT22;13866;50.748;12.630;2024-02-23T00:27:46;10.40;99.90
26107;DHT22;13866;50.748;12.630;2024-02-23T00:30:13;10.40;99.90
26107;DHT22;13866;50.748;12.630;2024-02-23T00:32:38;10.40;99.90
26107;DHT22;13866;50.748;12.630;2024-02-23T00:35:04;10.30;99.90
26107;DHT22;13866;50.748;12.630;2024-02-23T00:37:30;10.30;99.90
26107;DHT22;13866;50.748;12.630;2024-02-23T00:40:03;10.30;99.90
26107;DHT22;13866;50.748;12.630;2024-02-23T00:42:30;10.30;99.90
26107;DHT22;13866;50.748;12.630;2024-02-23T00:44:55;10.20;99.90
26107;DHT22;13866;50.748;12.630;2024-02-23T00:47:21;10.20;99.90
26107;DHT22;13866;50.748;12.630;2024-02-23T00:49:46;10.20;99.90
26107;DHT22;13866;50.748;12.630;2024-02-23T00:52:12;10.10;99.90
26107;DHT22;13866;50.748;12.630;2024-02-23T00:54:37;10.10;99.90
26107;DHT22;13866;50.748;12.630;2024-02-23T00:57:03;10.10;99.90
26107;DHT22;13866;50.748;12.630;2024-02-23T00:59:28;10.00;99.90
26107;DHT22;13866;50.748;12.630;2024-02-23T01:01:54;10.00;99.90
26107;DHT22;13866;50.748;12.630;2024-02-23T01:04:20;9.90;99.90
26107;DHT22;13866;50.748;12.630;2024-02-23T01:06:46;9.90;99.90
26107;DHT22;13866;50.748;12.630;2024-02-23T01:09:11;9.90;99.90
26107;DHT22;13866;50.748;12.630;2024-02-23T01:11:37;9.80;99.90
26107;DHT22;13866;50.748;12.630;2024-02-23T01:14:02;9.80;99.90
26107;DHT22;13866;50.748;12.630;2024-02-23T01:16:28;9.70;99.90
26107;DHT22;13866;50.748;12.630;2024-02-23T01:18:53;9.80;99.90
26107;DHT22;13866;50.748;12.630;2024-02-23T01:21:19;9.70;99.90
26107;DHT22;13866;50.748;12.630;2024-02-23T01:23:44;9.70;99.90
26107;DHT22;13866;50.748;12.630;2024-02-23T01:26:10;9.70;99.90
26107;DHT22;13866;50.748;12.630;2024-02-23T01:28:35;9.60;99.90
26107;DHT22;13866;50.748;12.630;2024-02-23T01:31:00;9.60;99.90
26107;DHT22;13866;50.748;12.630;2024-02-23T01:33:26;9.60;99.90
26107;DHT22;13866;50.748;12.630;2024-02-23T01:35:52;9.60;99.90
26107;DHT22;13866;50.748;12.630;2024-02-23T01:38:17;9.50;99.90
26107;DHT22;13866;50.748;12.630;2024-02-23T01:40:46;9.50;99.90
26107;DHT22;13866;50.748;12.630;2024-02-23T01:43:13;9.40;99.90
26107;DHT22;13866;50.748;12.630;2024-02-23T01:45:38;9.40;99.90
26107;DHT22;13866;50.748;12.630;2024-02-23T01:48:04;9.40;99.90
26107;DHT22;13866;50.748;12.630;2024-02-23T01:50:30;9.40;99.90
26107;DHT22;13866;50.748;12.630;2024-02-23T01:53:00;9.30;99.90
26107;DHT22;13866;50.748;12.630;2024-02-23T01:55:27;9.30;99.90
26107;DHT22;13866;50.748;12.630;2024-02-23T01:57:53;9.30;99.90
26107;DHT22;13866;50.748;12.630;2024-02-23T02:00:19;9.30;99.90
26107;DHT22;13866;50.748;12.630;2024-02-23T02:02:47;9.30;99.90
26107;DHT22;13866;50.748;12.630;2024-02-23T02:05:13;9.20;99.90
26107;DHT22;13866;50.748;12.630;2024-02-23T02:07:40;9.20;99.90
26107;DHT22;13866;50.748;12.630;2024-02-23T02:10:08;9.10;99.90
26107;DHT22;13866;50.748;12.630;2024-02-23T02:12:34;9.10;99.90
26107;DHT22;13866;50.748;12.630;2024-02-23T02:15:00;9.00;99.90
26107;DHT22;13866;50.748;12.630;2024-02-23T02:17:27;9.00;99.90
26107;DHT22;13866;50.748;12.630;2024-02-23T02:19:53;9.00;99.90
26107;DHT22;13866;50.748;12.630;2024-02-23T02:22:19;9.00;99.90
26107;DHT22;13866;50.748;12.630;2024-02-23T02:24:44;8.90;99.90
26107;DHT22;13866;50.748;12.630;2024-02-23T02:27:12;8.90;99.90
26107;DHT22;13866;50.748;12.630;2024-02-23T02:29:37;8.90;99.90
26107;DHT22;13866;50.748;12.630;2024-02-23T02:32:03;8.90;99.90
26107;DHT22;13866;50.748;12.630;2024-02-23T02:34:29;8.80;99.90
26107;DHT22;13866;50.748;12.630;2024-02-23T02:36:55;8.70;99.90
26107;DHT22;13866;50.748;12.630;2024-02-23T02:39:20;8.70;99.90
26107;DHT22;13866;50.748;12.630;2024-02-23T02:41:48;8.60;99.90
26107;DHT22;13866;50.748;12.630;2024-02-23T02:44:14;8.50;99.90
26107;DHT22;13866;50.748;12.630;2024-02-23T02:46:40;8.50;99.90
26107;DHT22;13866;50.748;12.630;2024-02-23T02:49:06;8.40;99.90
26107;DHT22;13866;50.748;12.630;2024-02-23T02:51:31;8.40;99.90
26107;DHT22;13866;50.748;12.630;2024-02-23T02:53:57;8.20;99.90
26107;DHT22;13866;50.748;12.630;2024-02-23T02:56:22;8.20;99.90
26107;DHT22;13866;50.748;12.630;2024-02-23T02:58:48;8.10;99.90
26107;DHT22;13866;50.748;12.630;2024-02-23T03:01:13;8.00;99.90
26107;DHT22;13866;50.748;12.630;2024-02-23T03:03:38;8.00;99.90
26107;DHT22;13866;50.748;12.630;2024-02-23T03:06:04;8.00;99.90
26107;DHT22;13866;50.748;12.630;2024-02-23T03:08:31;7.90;99.90
26107;DHT22;13866;50.748;12.630;2024-02-23T03:10:56;7.80;99.90
26107;DHT22;13866;50.748;12.630;2024-02-23T03:13:22;7.80;99.90
26107;DHT22;13866;50.748;12.630;2024-02-23T03:15:48;7.70;96.80
26107;DHT22;13866;50.748;12.630;2024-02-23T03:18:13;7.60;93.40
26107;DHT22;13866;50.748;12.630;2024-02-23T03:20:43;7.60;75.70
26107;DHT22;13866;50.748;12.630;2024-02-23T03:23:09;7.50;64.00
26107;DHT22;13866;50.748;12.630;2024-02-23T03:25:35;7.40;57.40
26107;DHT22;13866;50.748;12.630;2024-02-23T03:28:00;7.40;57.00
26107;DHT22;13866;50.748;12.630;2024-02-23T03:30:26;7.40;58.30
26107;DHT22;13866;50.748;12.630;2024-02-23T03:32:51;7.40;59.60
26107;DHT22;13866;50.748;12.630;2024-02-23T03:35:17;7.30;58.40
26107;DHT22;13866;50.748;12.630;2024-02-23T03:37:42;7.30;63.20
26107;DHT22;13866;50.748;12.630;2024-02-23T03:40:08;7.20;76.70
26107;DHT22;13866;50.748;12.630;2024-02-23T03:42:35;7.30;78.60
26107;DHT22;13866;50.748;12.630;2024-02-23T03:45:01;7.20;88.20
26107;DHT22;13866;50.748;12.630;2024-02-23T03:47:27;7.20;95.80
26107;DHT22;13866;50.748;12.630;2024-02-23T03:49:53;7.10;95.50
26107;DHT22;13866;50.748;12.630;2024-02-23T03:52:18;7.10;95.20
26107;DHT22;13866;50.748;12.630;2024-02-23T03:54:44;7.00;82.10
26107;DHT22;13866;50.748;12.630;2024-02-23T03:57:09;6.90;82.30
26107;DHT22;13866;50.748;12.630;2024-02-23T03:59:36;6.90;73.90
26107;DHT22;13866;50.748;12.630;2024-02-23T04:02:03;6.90;56.80
26107;DHT22;13866;50.748;12.630;2024-02-23T04:04:29;6.80;54.60
26107;DHT22;13866;50.748;12.630;2024-02-23T04:06:54;6.70;50.10
26107;DHT22;13866;50.748;12.630;2024-02-23T04:09:20;6.80;46.40
26107;DHT22;13866;50.748;12.630;2024-02-23T04:11:47;6.80;31.60
26107;DHT22;13866;50.748;12.630;2024-02-23T04:14:13;6.70;31.70
26107;DHT22;13866;50.748;12.630;2024-02-23T04:16:39;6.70;23.60
26107;DHT22;13866;50.748;12.630;2024-02-23T04:19:04;6.60;19.70
26107;DHT22;13866;50.748;12.630;2024-02-23T04:21:30;6.60;16.50
26107;DHT22;13866;50.748;12.630;2024-02-23T04:23:55;6.60;12.90
26107;DHT22;13866;50.748;12.630;2024-02-23T04:26:21;6.50;10.00
26107;DHT22;13866;50.748;12.630;2024-02-23T04:28:46;6.50;5.10
26107;DHT22;13866;50.748;12.630;2024-02-23T04:31:12;6.50;1.00
26107;DHT22;13866;50.748;12.630;2024-02-23T04:33:38;6.50;1.00
26107;DHT22;13866;50.748;12.630;2024-02-23T04:36:04;6.50;1.00
26107;DHT22;13866;50.748;12.630;2024-02-23T04:38:30;6.40;1.00
26107;DHT22;13866;50.748;12.630;2024-02-23T04:40:56;6.30;1.00
26107;DHT22;13866;50.748;12.630;2024-02-23T04:43:22;6.30;1.00
26107;DHT22;13866;50.748;12.630;2024-02-23T04:45:48;6.30;1.00
26107;DHT22;13866;50.748;12.630;2024-02-23T04:48:13;6.20;1.00
26107;DHT22;13866;50.748;12.630;2024-02-23T04:50:39;6.20;1.00
26107;DHT22;13866;50.748;12.630;2024-02-23T04:53:04;6.20;1.00
26107;DHT22;13866;50.748;12.630;2024-02-23T04:55:30;6.10;1.00
26107;DHT22;13866;50.748;12.630;2024-02-23T04:57:55;6.10;1.00
26107;DHT22;13866;50.748;12.630;2024-02-23T05:00:21;6.10;1.00
26107;DHT22;13866;50.748;12.630;2024-02-23T05:02:47;6.10;1.00
26107;DHT22;13866;50.748;12.630;2024-02-23T05:05:12;6.10;1.00
26107;DHT22;13866;50.748;12.630;2024-02-23T05:07:38;6.10;1.00
26107;DHT22;13866;50.748;12.630;2024-02-23T05:10:04;6.00;1.00
26107;DHT22;13866;50.748;12.630;2024-02-23T05:12:29;6.00;1.00
26107;DHT22;13866;50.748;12.630;2024-02-23T05:14:55;6.00;1.00
26107;DHT22;13866;50.748;12.630;2024-02-23T05:17:20;6.00;4.10
26107;DHT22;13866;50.748;12.630;2024-02-23T05:19:46;6.00;7.60
26107;DHT22;13866;50.748;12.630;2024-02-23T05:22:12;6.00;23.20
26107;DHT22;13866;50.748;12.630;2024-02-23T05:24:37;6.00;11.40
26107;DHT22;13866;50.748;12.630;2024-02-23T05:27:03;6.10;13.20
26107;DHT22;13866;50.748;12.630;2024-02-23T05:29:29;6.00;14.20
26107;DHT22;13866;50.748;12.630;2024-02-23T05:31:54;6.00;17.50
26107;DHT22;13866;50.748;12.630;2024-02-23T05:34:20;6.10;15.70
26107;DHT22;13866;50.748;12.630;2024-02-23T05:36:46;6.10;15.00
26107;DHT22;13866;50.748;12.630;2024-02-23T05:39:13;6.00;15.10
26107;DHT22;13866;50.748;12.630;2024-02-23T05:41:40;6.00;17.30
26107;DHT22;13866;50.748;12.630;2024-02-23T05:44:06;6.00;17.20
26107;DHT22;13866;50.748;12.630;2024-02-23T05:46:33;6.00;19.30
26107;DHT22;13866;50.748;12.630;2024-02-23T05:48:59;6.00;18.80
26107;DHT22;13866;50.748;12.630;2024-02-23T05:51:24;5.90;20.50
26107;DHT22;13866;50.748;12.630;2024-02-23T05:53:50;5.90;19.50
26107;DHT22;13866;50.748;12.630;2024-02-23T05:56:15;5.90;17.60
26107;DHT22;13866;50.748;12.630;2024-02-23T05:58:41;5.90;18.50
26107;DHT22;13866;50.748;12.630;2024-02-23T06:01:06;5.80;14.60
26107;DHT22;13866;50.748;12.630;2024-02-23T06:03:32;5.90;14.60
26107;DHT22;13866;50.748;12.630;2024-02-23T06:05:58;5.80;12.70
26107;DHT22;13866;50.748;12.630;2024-02-23T06:08:23;5.90;12.10
26107;DHT22;13866;50.748;12.630;2024-02-23T06:10:49;5.90;10.60
26107;DHT22;13866;50.748;12.630;2024-02-23T06:13:14;5.90;11.40
26107;DHT22;13866;50.748;12.630;2024-02-23T06:15:40;5.90;3.10
26107;DHT22;13866;50.748;12.630;2024-02-23T06:18:06;5.90;4.60
26107;DHT22;13866;50.748;12.630;2024-02-23T06:20:31;5.80;6.20
26107;DHT22;13866;50.748;12.630;2024-02-23T06:22:57;5.80;4.40
26107;DHT22;13866;50.748;12.630;2024-02-23T06:25:22;5.80;4.40
26107;DHT22;13866;50.748;12.630;2024-02-23T06:27:48;5.90;3.60
26107;DHT22;13866;50.748;12.630;2024-02-23T06:30:14;5.90;1.00
26107;DHT22;13866;50.748;12.630;2024-02-23T06:32:39;5.90;2.10
26107;DHT22;13866;50.748;12.630;2024-02-23T06:35:05;5.90;1.00
26107;DHT22;13866;50.748;12.630;2024-02-23T06:37:32;5.90;1.00
26107;DHT22;13866;50.748;12.630;2024-02-23T06:39:58;5.80;1.00
26107;DHT22;13866;50.748;12.630;2024-02-23T06:42:23;5.90;1.00
26107;DHT22;13866;50.748;12.630;2024-02-23T06:44:49;5.80;1.00
26107;DHT22;13866;50.748;12.630;2024-02-23T06:47:15;5.90;1.00
26107;DHT22;13866;50.748;12.630;2024-02-23T06:49:44;5.90;1.00
26107;DHT22;13866;50.748;12.630;2024-02-23T06:52:10;5.90;1.00
26107;DHT22;13866;50.748;12.630;2024-02-23T06:54:35;5.90;1.00
26107;DHT22;13866;50.748;12.630;2024-02-23T06:57:01;6.00;1.00
26107;DHT22;13866;50.748;12.630;2024-02-23T06:59:27;6.00;1.00
26107;DHT22;13866;50.748;12.630;2024-02-23T07:01:52;6.00;1.00
26107;DHT22;13866;50.748;12.630;2024-02-23T07:04:19;6.00;1.00
26107;DHT22;13866;50.748;12.630;2024-02-23T07:06:44;6.00;1.00
26107;DHT22;13866;50.748;12.630;2024-02-23T07:09:10;6.00;1.00
26107;DHT22;13866;50.748;12.630;2024-02-23T07:11:37;6.00;3.00
26107;DHT22;13866;50.748;12.630;2024-02-23T07:14:03;6.10;4.40
26107;DHT22;13866;50.748;12.630;2024-02-23T07:16:28;6.10;5.60
26107;DHT22;13866;50.748;12.630;2024-02-23T07:18:54;6.10;7.10
26107;DHT22;13866;50.748;12.630;2024-02-23T07:21:20;6.10;6.60
26107;DHT22;13866;50.748;12.630;2024-02-23T07:23:46;6.10;9.80
26107;DHT22;13866;50.748;12.630;2024-02-23T07:26:11;6.10;9.60
26107;DHT22;13866;50.748;12.630;2024-02-23T07:28:39;6.10;11.10
26107;DHT22;13866;50.748;12.630;2024-02-23T07:31:04;6.10;10.80
26107;DHT22;13866;50.748;12.630;2024-02-23T07:33:30;6.10;10.80
26107;DHT22;13866;50.748;12.630;2024-02-23T07:35:55;6.10;11.00
26107;DHT22;13866;50.748;12.630;2024-02-23T07:38:21;6.10;8.40
26107;DHT22;13866;50.748;12.630;2024-02-23T07:40:46;6.10;10.80
26107;DHT22;13866;50.748;12.630;2024-02-23T07:43:12;6.10;9.10
26107;DHT22;13866;50.748;12.630;2024-02-23T07:45:38;6.00;9.20
26107;DHT22;13866;50.748;12.630;2024-02-23T07:48:04;6.10;9.50
26107;DHT22;13866;50.748;12.630;2024-02-23T07:50:29;6.00;5.00
26107;DHT22;13866;50.748;12.630;2024-02-23T07:52:55;6.10;6.00
26107;DHT22;13866;50.748;12.630;2024-02-23T07:55:20;6.10;4.50
26107;DHT22;13866;50.748;12.630;2024-02-23T07:57:47;6.00;6.30
26107;DHT22;13866;50.748;12.630;2024-02-23T08:00:13;6.00;5.40
26107;DHT22;13866;50.748;12.630;2024-02-23T08:02:39;6.00;4.50
26107;DHT22;13866;50.748;12.630;2024-02-23T08:05:05;6.00;4.00
26107;DHT22;13866;50.748;12.630;2024-02-23T08:07:31;6.00;3.20
26107;DHT22;13866;50.748;12.630;2024-02-23T08:09:57;6.00;1.00
26107;DHT22;13866;50.748;12.630;2024-02-23T08:12:22;6.10;1.00
26107;DHT22;13866;50.748;12.630;2024-02-23T08:14:48;6.10;1.00
26107;DHT22;13866;50.748;12.630;2024-02-23T08:17:15;6.20;1.00
26107;DHT22;13866;50.748;12.630;2024-02-23T08:19:41;6.20;1.00
26107;DHT22;13866;50.748;12.630;2024-02-23T08:22:07;6.20;1.00
26107;DHT22;13866;50.748;12.630;2024-02-23T08:24:32;6.20;1.00
26107;DHT22;13866;50.748;12.630;2024-02-23T08:26:58;6.20;1.00
26107;DHT22;13866;50.748;12.630;2024-02-23T08:29:25;6.20;1.00
26107;DHT22;13866;50.748;12.630;2024-02-23T08:31:51;6.30;1.00
26107;DHT22;13866;50.748;12.630;2024-02-23T08:34:16;6.40;1.00
26107;DHT22;13866;50.748;12.630;2024-02-23T08:36:43;6.50;1.00
26107;DHT22;13866;50.748;12.630;2024-02-23T08:39:09;6.70;1.00
26107;DHT22;13866;50.748;12.630;2024-02-23T08:41:34;6.80;1.00
26107;DHT22;13866;50.748;12.630;2024-02-23T08:44:00;6.80;1.00
26107;DHT22;13866;50.748;12.630;2024-02-23T08:46:25;6.80;1.00
26107;DHT22;13866;50.748;12.630;2024-02-23T08:48:51;6.80;1.00
26107;DHT22;13866;50.748;12.630;2024-02-23T08:51:16;6.60;1.00
26107;DHT22;13866;50.748;12.630;2024-02-23T08:53:42;6.70;1.00
26107;DHT22;13866;50.748;12.630;2024-02-23T08:56:07;6.70;1.00
26107;DHT22;13866;50.748;12.630;2024-02-23T08:58:33;6.60;1.00
26107;DHT22;13866;50.748;12.630;2024-02-23T09:00:59;6.60;1.00
26107;DHT22;13866;50.748;12.630;2024-02-23T09:03:24;6.60;1.00
26107;DHT22;13866;50.748;12.630;2024-02-23T09:05:50;6.70;1.00
26107;DHT22;13866;50.748;12.630;2024-02-23T09:08:15;6.70;1.00
26107;DHT22;13866;50.748;12.630;2024-02-23T09:10:41;6.70;1.00
26107;DHT22;13866;50.748;12.630;2024-02-23T09:13:06;6.60;1.00
26107;DHT22;13866;50.748;12.630;2024-02-23T09:15:32;6.50;1.00
26107;DHT22;13866;50.748;12.630;2024-02-23T09:17:57;6.50;1.00
26107;DHT22;13866;50.748;12.630;2024-02-23T09:20:23;6.60;1.00
26107;DHT22;13866;50.748;12.630;2024-02-23T09:22:48;6.70;1.00
26107;DHT22;13866;50.748;12.630;2024-02-23T09:25:14;6.70;1.00
26107;DHT22;13866;50.748;12.630;2024-02-23T09:27:40;6.70;1.00
26107;DHT22;13866;50.748;12.630;2024-02-23T09:30:13;6.70;1.00
26107;DHT22;13866;50.748;12.630;2024-02-23T09:32:38;6.80;1.00
26107;DHT22;13866;50.748;12.630;2024-02-23T09:35:04;6.80;1.00
26107;DHT22;13866;50.748;12.630;2024-02-23T09:37:30;6.90;1.00
26107;DHT22;13866;50.748;12.630;2024-02-23T09:39:56;7.00;1.00
26107;DHT22;13866;50.748;12.630;2024-02-23T09:42:22;7.10;1.00
26107;DHT22;13866;50.748;12.630;2024-02-23T09:44:58;7.10;1.00
26107;DHT22;13866;50.748;12.630;2024-02-23T09:47:27;7.10;1.00
26107;DHT22;13866;50.748;12.630;2024-02-23T09:49:53;7.20;1.00
26107;DHT22;13866;50.748;12.630;2024-02-23T09:52:20;7.10;1.00
26107;DHT22;13866;50.748;12.630;2024-02-23T09:54:46;7.20;1.00
26107;DHT22;13866;50.748;12.630;2024-02-23T09:57:12;7.20;1.00
26107;DHT22;13866;50.748;12.630;2024-02-23T09:59:39;7.30;1.00
26107;DHT22;13866;50.748;12.630;2024-02-23T10:02:12;7.30;1.00
26107;DHT22;13866;50.748;12.630;2024-02-23T10:04:40;7.30;1.00
26107;DHT22;13866;50.748;12.630;2024-02-23T10:07:07;7.30;1.00
26107;DHT22;13866;50.748;12.630;2024-02-23T10:09:32;7.40;1.00
26107;DHT22;13866;50.748;12.630;2024-02-23T10:11:58;7.50;1.00
26107;DHT22;13866;50.748;12.630;2024-02-23T10:14:30;7.60;1.00
26107;DHT22;13866;50.748;12.630;2024-02-23T10:17:30;7.60;1.00
26107;DHT22;13866;50.748;12.630;2024-02-23T10:23:58;7.70;1.00
26107;DHT22;13866;50.748;12.630;2024-02-23T10:26:32;7.60;1.00
26107;DHT22;13866;50.748;12.630;2024-02-23T10:29:07;7.70;1.00
26107;DHT22;13866;50.748;12.630;2024-02-23T10:32:05;7.80;1.00
26107;DHT22;13866;50.748;12.630;2024-02-23T10:38:41;7.90;1.00
26107;DHT22;13866;50.748;12.630;2024-02-23T10:41:21;8.00;1.00
26107;DHT22;13866;50.748;12.630;2024-02-23T10:43:47;7.80;1.00
26107;DHT22;13866;50.748;12.630;2024-02-23T10:46:14;7.80;1.00
26107;DHT22;13866;50.748;12.630;2024-02-23T10:49:04;7.70;1.00
26107;DHT22;13866;50.748;12.630;2024-02-23T10:52:00;7.70;1.00
26107;DHT22;13866;50.748;12.630;2024-02-23T11:05:07;7.50;1.00
26107;DHT22;13866;50.748;12.630;2024-02-23T11:07:38;7.40;1.00
26107;DHT22;13866;50.748;12.630;2024-02-23T11:10:05;7.50;1.00
26107;DHT22;13866;50.748;12.630;2024-02-23T11:12:30;7.50;1.00
26107;DHT22;13866;50.748;12.630;2024-02-23T11:15:00;7.50;1.00
26107;DHT22;13866;50.748;12.630;2024-02-23T11:17:30;7.40;1.00
26107;DHT22;13866;50.748;12.630;2024-02-23T11:19:56;7.40;1.00
26107;DHT22;13866;50.748;12.630;2024-02-23T11:22:31;7.40;1.00
26107;DHT22;13866;50.748;12.630;2024-02-23T11:25:07;7.40;1.00
26107;DHT22;13866;50.748;12.630;2024-02-23T11:27:37;7.50;1.00
26107;DHT22;13866;50.748;12.630;2024-02-23T11:30:04;7.40;1.00
26107;DHT22;13866;50.748;12.630;2024-02-23T11:32:41;7.40;1.00
26107;DHT22;13866;50.748;12.630;2024-02-23T11:35:07;7.40;1.00
26107;DHT22;13866;50.748;12.630;2024-02-23T11:37:53;7.40;1.00
26107;DHT22;13866;50.748;12.630;2024-02-23T11:40:30;7.30;1.00
26107;DHT22;13866;50.748;12.630;2024-02-23T11:42:56;7.30;1.00
26107;DHT22;13866;50.748;12.630;2024-02-23T11:45:21;7.30;1.00
26107;DHT22;13866;50.748;12.630;2024-02-23T11:47:47;7.20;1.00
26107;DHT22;13866;50.748;12.630;2024-02-23T11:50:13;7.10;1.00
26107;DHT22;13866;50.748;12.630;2024-02-23T11:52:40;7.20;1.00
26107;DHT22;13866;50.748;12.630;2024-02-23T11:55:06;7.20;1.00
26107;DHT22;13866;50.748;12.630;2024-02-23T11:57:34;7.20;1.00
26107;DHT22;13866;50.748;12.630;2024-02-23T12:00:01;7.30;1.00
26107;DHT22;13866;50.748;12.630;2024-02-23T12:02:27;7.30;1.00
26107;DHT22;13866;50.748;12.630;2024-02-23T12:04:53;7.30;1.00
26107;DHT22;13866;50.748;12.630;2024-02-23T12:07:18;7.40;1.00
26107;DHT22;13866;50.748;12.630;2024-02-23T12:09:45;7.40;1.00
26107;DHT22;13866;50.748;12.630;2024-02-23T12:12:10;7.50;1.00
26107;DHT22;13866;50.748;12.630;2024-02-23T12:14:36;7.60;1.00
26107;DHT22;13866;50.748;12.630;2024-02-23T12:17:02;7.50;1.00
26107;DHT22;13866;50.748;12.630;2024-02-23T12:19:29;7.50;1.00
26107;DHT22;13866;50.748;12.630;2024-02-23T12:29:27;7.70;1.00
26107;DHT22;13866;50.748;12.630;2024-02-23T12:36:30;7.60;1.00
26107;DHT22;13866;50.748;12.630;2024-02-23T12:39:38;7.70;1.00
26107;DHT22;13866;50.748;12.630;2024-02-23T12:46:24;7.80;1.00
26107;DHT22;13866;50.748;12.630;2024-02-23T12:48:50;7.80;1.00
26107;DHT22;13866;50.748;12.630;2024-02-23T12:51:15;7.70;1.00
26107;DHT22;13866;50.748;12.630;2024-02-23T12:53:42;7.60;1.00
26107;DHT22;13866;50.748;12.630;2024-02-23T12:56:13;7.50;1.00
26107;DHT22;13866;50.748;12.630;2024-02-23T12:58:40;7.60;1.00
26107;DHT22;13866;50.748;12.630;2024-02-23T13:01:06;7.60;1.00
26107;DHT22;13866;50.748;12.630;2024-02-23T13:03:32;7.70;1.00
26107;DHT22;13866;50.748;12.630;2024-02-23T13:05:58;7.80;1.00
26107;DHT22;13866;50.748;12.630;2024-02-23T13:08:24;7.80;1.00
26107;DHT22;13866;50.748;12.630;2024-02-23T13:10:51;7.80;1.00
26107;DHT22;13866;50.748;12.630;2024-02-23T13:13:16;7.60;1.00
26107;DHT22;13866;50.748;12.630;2024-02-23T13:15:46;7.60;1.00
26107;DHT22;13866;50.748;12.630;2024-02-23T13:18:12;7.60;1.00
26107;DHT22;13866;50.748;12.630;2024-02-23T13:20:38;7.50;1.00
26107;DHT22;13866;50.748;12.630;2024-02-23T13:23:04;7.50;1.00
26107;DHT22;13866;50.748;12.630;2024-02-23T13:25:31;7.40;1.00
26107;DHT22;13866;50.748;12.630;2024-02-23T13:27:56;7.30;1.00
26107;DHT22;13866;50.748;12.630;2024-02-23T13:30:23;7.30;1.00
26107;DHT22;13866;50.748;12.630;2024-02-23T13:32:48;7.30;1.00
26107;DHT22;13866;50.748;12.630;2024-02-23T13:35:14;7.30;1.00
26107;DHT22;13866;50.748;12.630;2024-02-23T13:37:40;7.30;1.00
26107;DHT22;13866;50.748;12.630;2024-02-23T13:40:07;7.30;1.00
26107;DHT22;13866;50.748;12.630;2024-02-23T13:42:34;7.30;1.00
26107;DHT22;13866;50.748;12.630;2024-02-23T13:45:21;7.30;1.00
26107;DHT22;13866;50.748;12.630;2024-02-23T13:48:36;7.30;1.00
26107;DHT22;13866;50.748;12.630;2024-02-23T13:51:44;7.30;1.00
26107;DHT22;13866;50.748;12.630;2024-02-23T13:54:10;7.30;1.00
26107;DHT22;13866;50.748;12.630;2024-02-23T13:56:36;7.30;1.00
26107;DHT22;13866;50.748;12.630;2024-02-23T13:59:01;7.10;1.00
26107;DHT22;13866;50.748;12.630;2024-02-23T14:01:27;7.20;1.00
26107;DHT22;13866;50.748;12.630;2024-02-23T14:03:53;7.10;1.00
26107;DHT22;13866;50.748;12.630;2024-02-23T14:06:18;7.10;1.00
26107;DHT22;13866;50.748;12.630;2024-02-23T14:08:43;7.10;1.00
26107;DHT22;13866;50.748;12.630;2024-02-23T14:11:09;7.10;1.00
26107;DHT22;13866;50.748;12.630;2024-02-23T14:13:35;7.00;1.00
26107;DHT22;13866;50.748;12.630;2024-02-23T14:16:00;6.90;1.00
26107;DHT22;13866;50.748;12.630;2024-02-23T14:18:27;6.90;1.00
26107;DHT22;13866;50.748;12.630;2024-02-23T14:20:52;6.80;1.00
26107;DHT22;13866;50.748;12.630;2024-02-23T14:23:18;6.80;1.00
26107;DHT22;13866;50.748;12.630;2024-02-23T14:25:43;6.80;1.00
26107;DHT22;13866;50.748;12.630;2024-02-23T14:28:09;6.70;1.00
26107;DHT22;13866;50.748;12.630;2024-02-23T14:30:35;6.80;1.00
26107;DHT22;13866;50.748;12.630;2024-02-23T14:33:00;6.80;1.00
26107;DHT22;13866;50.748;12.630;2024-02-23T14:35:26;6.70;1.00
26107;DHT22;13866;50.748;12.630;2024-02-23T14:37:52;6.70;1.00
26107;DHT22;13866;50.748;12.630;2024-02-23T14:40:17;6.70;1.00
26107;DHT22;13866;50.748;12.630;2024-02-23T14:42:42;6.70;1.00
26107;DHT22;13866;50.748;12.630;2024-02-23T14:45:08;6.70;1.00
26107;DHT22;13866;50.748;12.630;2024-02-23T14:47:35;6.80;1.00
26107;DHT22;13866;50.748;12.630;2024-02-23T14:50:00;6.80;1.00
26107;DHT22;13866;50.748;12.630;2024-02-23T14:52:26;6.70;1.00
26107;DHT22;13866;50.748;12.630;2024-02-23T14:54:51;6.70;1.00
26107;DHT22;13866;50.748;12.630;2024-02-23T14:57:16;6.70;1.00
26107;DHT22;13866;50.748;12.630;2024-02-23T14:59:42;6.70;1.00
26107;DHT22;13866;50.748;12.630;2024-02-23T15:02:35;6.70;1.00
26107;DHT22;13866;50.748;12.630;2024-02-23T15:05:21;6.60;1.00
26107;DHT22;13866;50.748;12.630;2024-02-23T15:07:46;6.60;1.00
26107;DHT22;13866;50.748;12.630;2024-02-23T15:10:11;6.60;1.00
26107;DHT22;13866;50.748;12.630;2024-02-23T15:12:37;6.60;1.00
26107;DHT22;13866;50.748;12.630;2024-02-23T15:15:03;6.60;1.00
26107;DHT22;13866;50.748;12.630;2024-02-23T15:17:29;6.60;1.00
26107;DHT22;13866;50.748;12.630;2024-02-23T15:19:55;6.60;1.00
26107;DHT22;13866;50.748;12.630;2024-02-23T15:22:50;6.50;1.00
26107;DHT22;13866;50.748;12.630;2024-02-23T15:26:27;6.50;1.00
26107;DHT22;13866;50.748;12.630;2024-02-23T15:29:34;6.40;1.00
26107;DHT22;13866;50.748;12.630;2024-02-23T15:43:06;6.40;1.00
26107;DHT22;13866;50.748;12.630;2024-02-23T15:59:46;6.20;1.00
26107;DHT22;13866;50.748;12.630;2024-02-23T16:06:07;6.20;1.00
26107;DHT22;13866;50.748;12.630;2024-02-23T16:09:37;6.10;1.00
26107;DHT22;13866;50.748;12.630;2024-02-23T16:16:14;6.00;1.00
26107;DHT22;13866;50.748;12.630;2024-02-23T16:19:37;6.00;1.00
26107;DHT22;13866;50.748;12.630;2024-02-23T16:25:24;6.00;1.00
26107;DHT22;13866;50.748;12.630;2024-02-23T16:27:50;5.90;1.00
26107;DHT22;13866;50.748;12.630;2024-02-23T16:30:15;5.90;1.00
26107;DHT22;13866;50.748;12.630;2024-02-23T16:32:40;6.00;1.00
26107;DHT22;13866;50.748;12.630;2024-02-23T16:35:06;5.90;1.00
26107;DHT22;13866;50.748;12.630;2024-02-23T16:37:32;5.80;1.00
26107;DHT22;13866;50.748;12.630;2024-02-23T16:39:58;5.80;1.00
26107;DHT22;13866;50.748;12.630;2024-02-23T16:42:23;5.80;1.00
26107;DHT22;13866;50.748;12.630;2024-02-23T16:44:49;5.70;1.00
26107;DHT22;13866;50.748;12.630;2024-02-23T16:47:15;5.80;1.00
26107;DHT22;13866;50.748;12.630;2024-02-23T16:49:41;5.70;1.00
26107;DHT22;13866;50.748;12.630;2024-02-23T16:52:06;5.70;1.00
26107;DHT22;13866;50.748;12.630;2024-02-23T16:54:32;5.60;1.00